createdAt,value
2019-05-07T00:00:52.705Z,8.60
2019-05-07T00:03:22.082Z,14.55
2019-05-07T00:05:53.864Z,10.58
2019-05-07T00:08:23.052Z,10.75
2019-05-07T00:10:53.012Z,8.65
2019-05-07T00:13:22.833Z,8.60
2019-05-07T00:15:52.902Z,11.25
2019-05-07T00:18:22.940Z,13.10
2019-05-07T00:20:52.994Z,8.78
2019-05-07T00:23:23.307Z,9.68
2019-05-07T00:25:53.008Z,12.53
2019-05-07T00:28:23.073Z,8.68
2019-05-07T00:30:52.419Z,9.53
2019-05-07T00:33:22.843Z,9.68
2019-05-07T00:35:53.997Z,9.38
2019-05-07T00:38:25.242Z,8.93
2019-05-07T00:40:56.152Z,10.45
2019-05-07T00:43:27.098Z,10.20
2019-05-07T00:45:58.268Z,8.18
2019-05-07T00:48:27.869Z,11.75
2019-05-07T00:51:14.645Z,9.08
2019-05-07T00:53:43.917Z,10.15
2019-05-07T00:56:13.185Z,10.43
2019-05-07T00:58:42.932Z,11.60
2019-05-07T01:01:13.084Z,10.48
2019-05-07T01:03:42.717Z,10.30
2019-05-07T01:06:12.936Z,11.00
2019-05-07T01:08:43.022Z,10.30
2019-05-07T01:11:13.160Z,9.60
2019-05-07T01:13:43.461Z,12.43
2019-05-07T01:16:13.373Z,11.97
2019-05-07T01:18:42.638Z,10.23
2019-05-07T01:21:13.213Z,9.43
2019-05-07T01:23:42.887Z,11.83
2019-05-07T01:26:12.597Z,12.03
2019-05-07T01:29:02.480Z,12.70
2019-05-07T01:31:34.439Z,13.45
2019-05-07T01:34:22.932Z,12.78
2019-05-07T01:36:52.389Z,11.12
2019-05-07T01:39:23.216Z,10.40
2019-05-07T01:41:53.625Z,11.12
2019-05-07T01:44:23.234Z,10.20
2019-05-07T01:46:52.989Z,16.42
2019-05-07T01:49:24.026Z,11.40
2019-05-07T01:51:53.797Z,12.47
2019-05-07T01:54:23.788Z,12.07
2019-05-07T01:56:53.524Z,15.10
2019-05-07T01:59:22.797Z,10.20
2019-05-07T02:01:53.971Z,12.23
2019-05-07T02:04:32.684Z,11.30
2019-05-07T02:07:06.596Z,11.38
2019-05-07T02:09:37.846Z,12.23
2019-05-07T02:12:09.097Z,15.28
2019-05-07T02:14:38.366Z,12.33
2019-05-07T02:17:07.635Z,11.20
2019-05-07T02:19:36.907Z,14.10
2019-05-07T02:22:06.173Z,14.68
2019-05-07T02:24:35.438Z,13.70
2019-05-07T02:27:04.767Z,12.10
2019-05-07T02:29:34.299Z,13.20
2019-05-07T02:32:04.672Z,12.60
2019-05-07T02:34:34.669Z,12.40
2019-05-07T02:37:05.675Z,15.70
2019-05-07T02:39:36.574Z,13.08
2019-05-07T02:42:06.129Z,11.97
2019-05-07T02:44:37.302Z,15.48
2019-05-07T02:47:08.205Z,12.75
2019-05-07T02:49:39.109Z,10.82
2019-05-07T02:52:13.216Z,14.13
2019-05-07T02:54:58.017Z,15.68
2019-05-07T02:57:29.472Z,11.48
2019-05-07T02:59:58.736Z,13.93
2019-05-07T03:02:28.255Z,12.10
2019-05-07T03:04:57.517Z,11.10
2019-05-07T03:07:27.084Z,14.00
2019-05-07T03:09:56.695Z,15.35
2019-05-07T03:12:25.953Z,11.25
2019-05-07T03:14:55.292Z,13.88
2019-05-07T03:17:24.931Z,14.87
2019-05-07T03:19:55.790Z,14.33
2019-05-07T03:22:25.042Z,13.10
2019-05-07T03:24:55.939Z,13.95
2019-05-07T03:27:25.196Z,13.88
2019-05-07T03:29:58.889Z,14.63
2019-05-07T03:32:40.465Z,15.68
2019-05-07T03:35:28.547Z,14.95
2019-05-07T03:37:58.595Z,14.30
2019-05-07T03:40:28.940Z,14.65
2019-05-07T03:43:01.623Z,16.93
2019-05-07T03:45:33.859Z,12.90
2019-05-07T03:48:16.686Z,13.40
2019-05-07T03:50:45.954Z,12.93
2019-05-07T03:53:15.220Z,11.65
2019-05-07T03:55:45.047Z,12.35
2019-05-07T03:58:14.850Z,14.03
2019-05-07T04:00:45.214Z,12.95
2019-05-07T04:03:18.978Z,12.58
2019-05-07T04:05:45.518Z,12.70
2019-05-07T04:08:15.040Z,13.03
2019-05-07T04:10:44.747Z,12.00
2019-05-07T04:13:14.431Z,11.83
2019-05-07T04:15:44.246Z,15.88
2019-05-07T04:18:14.062Z,13.62
2019-05-07T04:20:43.873Z,13.32
2019-05-07T04:23:13.977Z,23.40
2019-05-07T04:25:52.953Z,15.05
2019-05-07T04:28:33.838Z,17.00
2019-05-07T04:31:03.836Z,18.55
2019-05-07T04:33:37.711Z,15.00
2019-05-07T04:36:14.136Z,17.95
2019-05-07T04:38:44.000Z,14.80
2019-05-07T04:41:14.019Z,14.15
2019-05-07T04:43:43.911Z,14.80
2019-05-07T04:46:14.495Z,13.10
2019-05-07T04:48:44.382Z,13.72
2019-05-07T04:51:15.923Z,14.75
2019-05-07T04:53:45.528Z,12.18
2019-05-07T04:56:14.811Z,13.00
2019-05-07T04:58:44.082Z,16.67
2019-05-07T05:01:14.997Z,13.08
2019-05-07T05:03:44.265Z,14.38
2019-05-07T05:06:13.891Z,15.05
2019-05-07T05:08:43.741Z,13.22
2019-05-07T05:11:13.097Z,14.90
2019-05-07T05:13:44.425Z,13.48
2019-05-07T05:16:28.622Z,12.03
2019-05-07T05:18:58.376Z,13.40
2019-05-07T05:21:29.288Z,17.27
2019-05-07T05:24:01.838Z,14.95
2019-05-07T05:26:32.512Z,18.05
2019-05-07T05:29:02.494Z,15.18
2019-05-07T05:31:33.101Z,14.10
2019-05-07T05:34:02.478Z,13.08
2019-05-07T05:36:32.985Z,13.40
2019-05-07T05:39:02.660Z,12.80
2019-05-07T05:41:34.556Z,12.13
2019-05-07T05:44:06.257Z,17.92
2019-05-07T05:46:35.570Z,15.08
2019-05-07T05:49:04.840Z,16.45
2019-05-07T05:51:48.287Z,17.92
2019-05-07T05:54:19.205Z,20.02
2019-05-07T05:56:52.017Z,17.32
2019-05-07T05:59:45.023Z,21.80
2019-05-07T06:02:07.800Z,17.15
2019-05-07T06:04:39.061Z,17.85
2019-05-07T06:07:26.404Z,20.17
2019-05-07T06:10:15.446Z,15.85
2019-05-07T06:12:55.705Z,21.40
2019-05-07T06:15:42.811Z,19.82
2019-05-07T06:18:20.982Z,20.05
2019-05-07T06:20:47.053Z,18.45
2019-05-07T06:23:24.243Z,16.07
2019-05-07T06:25:53.549Z,18.85
2019-05-07T06:28:23.154Z,19.77
2019-05-07T06:30:52.979Z,13.87
2019-05-07T06:33:23.118Z,14.10
2019-05-07T06:35:52.548Z,14.33
2019-05-07T06:38:23.189Z,15.37
2019-05-07T06:40:54.362Z,15.20
2019-05-07T06:43:28.125Z,16.10
2019-05-07T06:45:59.039Z,16.23
2019-05-07T06:48:38.905Z,15.80
2019-05-07T06:50:59.894Z,14.73
2019-05-07T06:53:33.412Z,15.33
2019-05-07T06:56:04.721Z,12.90
2019-05-07T06:58:36.057Z,13.83
2019-05-07T07:01:16.726Z,13.07
2019-05-07T07:04:02.381Z,13.73
2019-05-07T07:06:32.853Z,12.93
2019-05-07T07:09:22.245Z,9.77
2019-05-07T07:12:02.208Z,11.97
2019-05-07T07:14:33.190Z,11.90
2019-05-07T07:17:02.754Z,12.20
2019-05-07T07:19:35.832Z,12.40
2019-05-07T07:22:03.314Z,11.23
2019-05-07T07:24:33.078Z,13.60
2019-05-07T07:27:02.667Z,12.53
2019-05-07T07:29:36.780Z,12.07
2019-05-07T07:32:07.771Z,10.90
2019-05-07T07:34:38.968Z,16.40
2019-05-07T07:37:15.173Z,13.23
2019-05-07T07:39:43.021Z,11.50
2019-05-07T07:42:12.556Z,9.87
2019-05-07T07:44:42.559Z,10.83
2019-05-07T07:47:12.887Z,13.27
2019-05-07T07:49:42.449Z,11.57
2019-05-07T07:52:12.322Z,11.43
2019-05-07T07:54:42.916Z,12.80
2019-05-07T07:57:16.574Z,14.47
2019-05-07T07:59:53.257Z,14.13
2019-05-07T08:02:32.072Z,11.43
2019-05-07T08:05:02.070Z,10.90
2019-05-07T08:07:33.090Z,9.47
2019-05-07T08:10:02.968Z,11.13
2019-05-07T08:12:32.660Z,12.27
2019-05-07T08:15:14.795Z,15.10
2019-05-07T08:17:33.293Z,10.40
2019-05-07T08:20:02.715Z,13.13
2019-05-07T08:22:32.977Z,11.30
2019-05-07T08:25:04.038Z,11.97
2019-05-07T08:27:33.453Z,12.87
2019-05-07T08:30:05.158Z,11.40
2019-05-07T08:32:36.142Z,8.37
2019-05-07T08:35:24.742Z,9.50
2019-05-07T08:37:54.019Z,10.23
2019-05-07T08:40:23.295Z,9.20
2019-05-07T08:42:53.259Z,9.90
2019-05-07T08:45:39.764Z,15.33
2019-05-07T08:48:16.505Z,10.23
2019-05-07T08:50:46.147Z,10.47
2019-05-07T08:53:15.673Z,12.80
2019-05-07T08:55:45.266Z,11.07
2019-05-07T08:58:14.866Z,9.23
2019-05-07T09:00:44.574Z,8.97
2019-05-07T09:03:22.118Z,9.20
2019-05-07T09:05:46.756Z,11.73
2019-05-07T09:08:16.038Z,10.63
2019-05-07T09:10:45.300Z,10.43
2019-05-07T09:13:14.577Z,7.70
2019-05-07T09:15:43.853Z,7.00
2019-05-07T09:18:13.472Z,11.50
2019-05-07T09:20:43.073Z,7.50
2019-05-07T09:23:12.688Z,8.47
2019-05-07T09:25:48.652Z,8.50
2019-05-07T09:28:19.352Z,9.00
2019-05-07T09:30:52.479Z,10.90
2019-05-07T09:33:29.143Z,9.63
2019-05-07T09:35:58.418Z,11.13
2019-05-07T09:38:27.688Z,9.30
2019-05-07T09:40:57.240Z,15.47
2019-05-07T09:43:26.584Z,8.40
2019-05-07T09:45:55.852Z,9.87
2019-05-07T09:48:25.137Z,7.20
2019-05-07T09:50:54.413Z,10.13
2019-05-07T09:53:24.048Z,8.47
2019-05-07T09:55:53.317Z,8.77
2019-05-07T09:58:35.549Z,7.93
2019-05-07T10:00:53.656Z,11.10
2019-05-07T10:03:23.196Z,6.87
2019-05-07T10:05:52.470Z,8.47
2019-05-07T10:08:21.739Z,7.07
2019-05-07T10:10:53.139Z,7.07
2019-05-07T10:13:26.195Z,6.70
2019-05-07T10:15:55.531Z,7.27
2019-05-07T10:18:24.797Z,8.97
2019-05-07T10:20:54.362Z,6.90
2019-05-07T10:23:23.829Z,6.00
2019-05-07T10:25:54.091Z,6.13
2019-05-07T10:28:23.977Z,6.60
2019-05-07T10:30:53.923Z,9.30
2019-05-07T10:33:23.335Z,8.40
2019-05-07T10:35:53.139Z,8.43
2019-05-07T10:38:22.438Z,7.17
2019-05-07T10:40:51.705Z,5.67
2019-05-07T10:43:22.250Z,7.43
2019-05-07T10:46:05.620Z,7.50
2019-05-07T10:48:42.342Z,6.37
2019-05-07T10:51:11.613Z,7.30
2019-05-07T10:53:42.440Z,6.70
2019-05-07T10:56:12.009Z,7.57
2019-05-07T10:58:41.777Z,6.20
2019-05-07T11:01:13.822Z,5.23
2019-05-07T11:03:43.083Z,6.03
2019-05-07T11:06:12.357Z,6.30
2019-05-07T11:08:42.831Z,8.93
2019-05-07T11:11:12.276Z,5.20
2019-05-07T11:13:42.247Z,7.40
2019-05-07T11:16:13.242Z,6.90
2019-05-07T11:18:44.149Z,5.43
2019-05-07T11:21:13.416Z,5.00
2019-05-07T11:23:42.700Z,4.90
2019-05-07T11:26:11.984Z,5.53
2019-05-07T11:28:41.246Z,6.67
2019-05-07T11:31:12.336Z,5.00
2019-05-07T11:33:41.737Z,4.73
2019-05-07T11:36:11.338Z,5.17
2019-05-07T11:38:41.836Z,4.97
2019-05-07T11:41:12.773Z,3.93
2019-05-07T11:43:47.030Z,4.90
2019-05-07T11:46:24.459Z,5.03
2019-05-07T11:48:58.217Z,4.00
2019-05-07T11:51:38.081Z,6.20
2019-05-07T11:54:14.072Z,4.07
2019-05-07T11:56:43.738Z,6.03
2019-05-07T11:59:13.649Z,4.00
2019-05-07T12:01:47.825Z,4.20
2019-05-07T12:04:15.769Z,6.40
2019-05-07T12:06:45.040Z,7.30
2019-05-07T12:09:14.316Z,4.70
2019-05-07T12:11:43.582Z,5.57
2019-05-07T12:14:12.858Z,5.73
2019-05-07T12:16:42.700Z,5.80
2019-05-07T12:19:13.149Z,6.90
2019-05-07T12:21:43.067Z,4.43
2019-05-07T12:24:13.550Z,6.07
2019-05-07T12:26:44.312Z,4.73
2019-05-07T12:29:13.610Z,5.57
2019-05-07T12:31:47.271Z,6.20
2019-05-07T12:34:24.243Z,5.67
2019-05-07T12:36:53.843Z,6.67
2019-05-07T12:39:23.136Z,5.20
2019-05-07T12:41:52.755Z,4.90
2019-05-07T12:44:22.267Z,8.93
2019-05-07T12:46:52.485Z,4.93
2019-05-07T12:49:22.185Z,4.90
2019-05-07T12:51:53.200Z,5.10
2019-05-07T12:54:26.597Z,7.33
2019-05-07T12:56:55.869Z,5.33
2019-05-07T12:59:25.435Z,6.10
2019-05-07T13:02:17.799Z,5.70
2019-05-07T13:04:36.866Z,5.93
2019-05-07T13:07:16.818Z,5.00
2019-05-07T13:09:46.388Z,4.90
2019-05-07T13:12:15.995Z,5.70
2019-05-07T13:14:45.609Z,4.90
2019-05-07T13:17:15.210Z,6.37
2019-05-07T13:19:44.824Z,7.03
2019-05-07T13:22:14.430Z,5.33
2019-05-07T13:24:43.700Z,6.20
2019-05-07T13:27:13.238Z,7.17
2019-05-07T13:29:44.893Z,6.03
2019-05-07T13:32:14.540Z,5.53
2019-05-07T13:34:44.997Z,5.80
2019-05-07T13:37:16.278Z,4.30
2019-05-07T13:39:47.332Z,5.87
2019-05-07T13:42:34.556Z,4.80
2019-05-07T13:45:07.229Z,5.73
2019-05-07T13:47:37.271Z,12.33
2019-05-07T13:50:08.272Z,4.30
2019-05-07T13:52:37.787Z,4.87
2019-05-07T13:55:09.463Z,5.03
2019-05-07T13:57:38.811Z,5.67
2019-05-07T14:00:12.899Z,5.37
2019-05-07T14:02:42.282Z,4.73
2019-05-07T14:05:13.999Z,4.27
2019-05-07T14:07:43.952Z,4.93
2019-05-07T14:10:13.555Z,5.13
2019-05-07T14:12:42.858Z,4.97
2019-05-07T14:15:13.008Z,5.03
2019-05-07T14:17:42.420Z,4.83
2019-05-07T14:20:13.074Z,4.77
2019-05-07T14:22:42.629Z,4.50
2019-05-07T14:25:12.491Z,5.00
2019-05-07T14:27:42.829Z,4.67
2019-05-07T14:30:13.187Z,4.80
2019-05-07T14:32:44.072Z,4.97
2019-05-07T14:35:32.194Z,5.27
2019-05-07T14:38:06.249Z,4.30
2019-05-07T14:40:35.850Z,5.63
2019-05-07T14:43:12.686Z,4.90
2019-05-07T14:45:42.370Z,5.40
2019-05-07T14:48:12.291Z,5.57
2019-05-07T14:50:44.694Z,4.37
2019-05-07T14:53:13.212Z,4.20
2019-05-07T14:55:42.584Z,3.83
2019-05-07T14:58:12.392Z,4.43
2019-05-07T15:00:42.654Z,3.70
2019-05-07T15:03:12.710Z,5.20
2019-05-07T15:05:42.356Z,4.77
2019-05-07T15:08:14.427Z,5.00
2019-05-07T15:10:43.485Z,4.23
2019-05-07T15:13:13.047Z,3.80
2019-05-07T15:15:42.856Z,5.10
2019-05-07T15:18:19.976Z,4.90
2019-05-07T15:20:49.250Z,4.40
2019-05-07T15:23:25.917Z,4.80
2019-05-07T15:25:55.511Z,4.10
2019-05-07T15:28:24.857Z,4.87
2019-05-07T15:31:04.726Z,3.63
2019-05-07T15:33:34.007Z,4.73
2019-05-07T15:36:06.448Z,3.70
2019-05-07T15:38:34.723Z,4.07
2019-05-07T15:41:04.051Z,5.17
2019-05-07T15:43:33.320Z,4.53
2019-05-07T15:46:02.826Z,4.57
2019-05-07T15:48:32.758Z,6.63
2019-05-07T15:51:02.352Z,3.97
2019-05-07T15:53:36.506Z,5.03
2019-05-07T15:56:05.773Z,4.90
2019-05-07T15:58:35.373Z,4.43
2019-05-07T16:01:05.083Z,4.50
2019-05-07T16:03:42.930Z,3.80
2019-05-07T16:06:12.940Z,3.83
2019-05-07T16:08:43.907Z,4.43
2019-05-07T16:11:13.156Z,4.73
2019-05-07T16:13:44.063Z,5.17
2019-05-07T16:16:13.339Z,3.50
2019-05-07T16:19:01.908Z,3.50
2019-05-07T16:21:32.471Z,4.67
2019-05-07T16:24:04.135Z,3.87
2019-05-07T16:26:33.054Z,3.97
2019-05-07T16:29:04.582Z,3.40
2019-05-07T16:31:33.434Z,3.10
2019-05-07T16:34:02.745Z,3.80
2019-05-07T16:36:32.945Z,3.77
2019-05-07T16:39:03.394Z,3.93
2019-05-07T16:41:33.317Z,4.30
2019-05-07T16:44:03.024Z,4.20
2019-05-07T16:46:32.233Z,4.10
2019-05-07T16:49:02.287Z,4.40
2019-05-07T16:51:33.044Z,4.37
2019-05-07T16:54:03.408Z,3.90
2019-05-07T16:56:33.442Z,5.90
2019-05-07T16:59:07.671Z,5.37
2019-05-07T17:01:37.345Z,5.00
2019-05-07T17:04:06.619Z,5.50
2019-05-07T17:06:35.893Z,4.70
2019-05-07T17:09:08.522Z,5.90
2019-05-07T17:11:37.791Z,4.90
2019-05-07T17:14:07.057Z,5.03
2019-05-07T17:16:36.322Z,5.40
2019-05-07T17:19:05.894Z,5.77
2019-05-07T17:21:35.118Z,5.33
2019-05-07T17:24:04.710Z,5.63
2019-05-07T17:26:33.979Z,4.50
2019-05-07T17:29:03.542Z,5.00
2019-05-07T17:31:32.810Z,5.00
2019-05-07T17:34:02.390Z,6.33
2019-05-07T17:36:33.044Z,4.40
2019-05-07T17:39:02.923Z,5.10
2019-05-07T17:41:32.414Z,4.20
2019-05-07T17:44:02.680Z,4.67
2019-05-07T17:46:32.575Z,5.13
2019-05-07T17:49:02.634Z,5.90
2019-05-07T17:51:42.023Z,4.70
2019-05-07T17:54:13.075Z,5.53
2019-05-07T17:56:43.578Z,4.87
2019-05-07T17:59:12.999Z,4.70
2019-05-07T18:01:43.970Z,5.40
2019-05-07T18:04:13.241Z,6.27
2019-05-07T18:06:42.839Z,4.73
2019-05-07T18:09:12.523Z,5.50
2019-05-07T18:11:42.894Z,5.93
2019-05-07T18:14:12.210Z,5.90
2019-05-07T18:16:49.199Z,6.10
2019-05-07T18:19:18.732Z,5.10
2019-05-07T18:21:48.006Z,6.47
2019-05-07T18:24:17.541Z,5.53
2019-05-07T18:26:46.884Z,4.93
2019-05-07T18:29:16.171Z,5.67
2019-05-07T18:31:47.068Z,6.23
2019-05-07T18:34:16.481Z,11.13
2019-05-07T18:36:45.755Z,8.53
2019-05-07T18:39:15.068Z,6.73
2019-05-07T18:41:44.345Z,5.67
2019-05-07T18:44:16.121Z,7.17
2019-05-07T18:46:44.618Z,6.57
2019-05-07T18:49:13.887Z,5.97
2019-05-07T18:51:43.168Z,6.50
2019-05-07T18:54:26.991Z,6.97
2019-05-07T18:56:43.430Z,6.00
2019-05-07T18:59:13.607Z,6.43
2019-05-07T19:01:44.120Z,6.73
2019-05-07T19:04:13.473Z,11.10
2019-05-07T19:06:43.138Z,7.67
2019-05-07T19:09:12.476Z,7.00
2019-05-07T19:11:42.745Z,6.30
2019-05-07T19:14:13.388Z,6.37
2019-05-07T19:16:43.163Z,5.90
2019-05-07T19:19:12.807Z,8.17
2019-05-07T19:21:42.386Z,6.27
2019-05-07T19:24:11.725Z,7.97
2019-05-07T19:26:42.100Z,6.80
2019-05-07T19:29:12.459Z,7.00
2019-05-07T19:31:41.936Z,6.13
2019-05-07T19:34:12.313Z,7.73
2019-05-07T19:36:42.402Z,6.87
2019-05-07T19:39:12.663Z,7.07
2019-05-07T19:41:42.967Z,6.87
2019-05-07T19:44:12.779Z,7.37
2019-05-07T19:46:42.115Z,7.80
2019-05-07T19:49:11.385Z,6.63
2019-05-07T19:51:42.684Z,5.97
2019-05-07T19:54:11.917Z,7.20
2019-05-07T19:56:42.755Z,7.67
2019-05-07T19:59:12.467Z,9.03
2019-05-07T20:01:46.216Z,7.63
2019-05-07T20:04:15.770Z,7.00
2019-05-07T20:06:45.380Z,8.57
2019-05-07T20:09:16.372Z,11.80
2019-05-07T20:11:47.565Z,8.60
2019-05-07T20:14:16.831Z,7.13
2019-05-07T20:16:46.122Z,7.90
2019-05-07T20:19:15.380Z,7.80
2019-05-07T20:21:44.993Z,6.40
2019-05-07T20:24:14.620Z,6.07
2019-05-07T20:26:43.868Z,7.03
2019-05-07T20:29:13.141Z,7.80
2019-05-07T20:31:42.565Z,7.47
2019-05-07T20:34:13.045Z,7.30
2019-05-07T20:36:42.881Z,7.60
2019-05-07T20:39:12.912Z,6.43
2019-05-07T20:41:43.054Z,9.97
2019-05-07T20:44:12.578Z,6.73
2019-05-07T20:46:42.250Z,6.37
2019-05-07T20:49:13.188Z,6.63
2019-05-07T20:51:42.577Z,8.00
2019-05-07T20:54:16.240Z,7.47
2019-05-07T20:56:47.166Z,16.37
2019-05-07T20:59:16.443Z,8.80
2019-05-07T21:01:45.723Z,6.83
2019-05-07T21:04:15.264Z,7.43
2019-05-07T21:06:44.881Z,7.00
2019-05-07T21:09:14.156Z,8.43
2019-05-07T21:11:43.776Z,6.30
2019-05-07T21:14:13.384Z,7.27
2019-05-07T21:16:43.009Z,10.90
2019-05-07T21:19:12.936Z,8.30
2019-05-07T21:21:42.426Z,7.80
2019-05-07T21:24:13.076Z,6.97
2019-05-07T21:26:42.621Z,7.40
2019-05-07T21:29:13.682Z,7.17
2019-05-07T21:31:43.421Z,6.73
2019-05-07T21:34:12.731Z,7.23
2019-05-07T21:36:43.259Z,9.20
2019-05-07T21:39:13.185Z,7.90
2019-05-07T21:41:42.899Z,8.17
2019-05-07T21:44:12.220Z,7.90
2019-05-07T21:46:42.619Z,7.90
2019-05-07T21:49:12.556Z,8.17
2019-05-07T21:51:41.773Z,8.20
2019-05-07T21:54:29.436Z,8.20
2019-05-07T21:57:12.847Z,9.83
2019-05-07T21:59:43.362Z,8.13
2019-05-07T22:02:17.509Z,9.77
2019-05-07T22:04:46.788Z,7.07
2019-05-07T22:07:16.059Z,7.50
2019-05-07T22:09:45.329Z,8.80
2019-05-07T22:12:14.675Z,8.23
2019-05-07T22:14:43.957Z,8.13
2019-05-07T22:17:13.227Z,7.40
2019-05-07T22:19:42.755Z,8.03
2019-05-07T22:22:12.431Z,10.33
2019-05-07T22:24:42.672Z,6.87
2019-05-07T22:27:12.920Z,8.80
2019-05-07T22:29:42.473Z,8.63
2019-05-07T22:32:29.796Z,7.23
2019-05-07T22:35:02.794Z,7.27
2019-05-07T22:37:32.543Z,8.00
2019-05-07T22:40:02.781Z,7.33
2019-05-07T22:42:32.804Z,6.23
2019-05-07T22:45:02.820Z,7.23
2019-05-07T22:47:32.744Z,6.93
2019-05-07T22:50:02.775Z,7.20
2019-05-07T22:52:32.761Z,7.37
2019-05-07T22:55:02.410Z,7.77
2019-05-07T22:57:39.203Z,6.67
2019-05-07T23:00:12.256Z,7.97
2019-05-07T23:02:42.789Z,6.83
2019-05-07T23:05:12.716Z,9.50
2019-05-07T23:07:44.062Z,7.00
2019-05-07T23:10:13.452Z,7.47
2019-05-07T23:12:43.078Z,9.27
2019-05-07T23:15:12.793Z,7.10
2019-05-07T23:17:42.396Z,7.63
2019-05-07T23:20:11.912Z,6.60
2019-05-07T23:22:42.800Z,7.03
2019-05-07T23:25:12.304Z,5.93
2019-05-07T23:27:42.037Z,8.17
2019-05-07T23:30:13.004Z,8.33
2019-05-07T23:32:42.454Z,7.27
2019-05-07T23:35:12.750Z,8.20
2019-05-07T23:37:44.175Z,8.90
2019-05-07T23:40:22.960Z,9.00
2019-05-07T23:42:56.540Z,9.03
2019-05-07T23:45:25.816Z,8.27
2019-05-07T23:47:55.100Z,7.13
2019-05-07T23:50:24.371Z,7.63
2019-05-07T23:52:53.641Z,6.63
2019-05-07T23:55:22.960Z,7.50
2019-05-07T23:57:52.600Z,12.10
